sensor_id;sensor_type;location;lat;lon;timestamp;P1;durP1;ratioP1;P2;durP2;ratioP2
24407;SDS011;12542;50.924;4.516;2022-08-25T00:01:43;5.95;;;3.72;;
24407;SDS011;12542;50.924;4.516;2022-08-25T00:04:11;6.80;;;3.78;;
24407;SDS011;12542;50.924;4.516;2022-08-25T00:06:39;10.88;;;4.10;;
24407;SDS011;12542;50.924;4.516;2022-08-25T00:09:07;6.55;;;3.95;;
24407;SDS011;12542;50.924;4.516;2022-08-25T00:11:35;5.78;;;4.13;;
24407;SDS011;12542;50.924;4.516;2022-08-25T00:14:05;6.32;;;4.00;;
24407;SDS011;12542;50.924;4.516;2022-08-25T00:16:34;5.60;;;4.03;;
24407;SDS011;12542;50.924;4.516;2022-08-25T00:19:01;5.72;;;3.92;;
24407;SDS011;12542;50.924;4.516;2022-08-25T00:21:30;7.60;;;3.83;;
24407;SDS011;12542;50.924;4.516;2022-08-25T00:23:57;6.00;;;3.88;;
24407;SDS011;12542;50.924;4.516;2022-08-25T00:26:24;9.80;;;4.80;;
24407;SDS011;12542;50.924;4.516;2022-08-25T00:28:51;7.22;;;4.45;;
24407;SDS011;12542;50.924;4.516;2022-08-25T00:31:18;11.00;;;4.35;;
24407;SDS011;12542;50.924;4.516;2022-08-25T00:33:47;8.50;;;3.72;;
24407;SDS011;12542;50.924;4.516;2022-08-25T00:36:15;11.90;;;4.28;;
24407;SDS011;12542;50.924;4.516;2022-08-25T00:38:42;6.50;;;4.35;;
24407;SDS011;12542;50.924;4.516;2022-08-25T00:41:11;5.85;;;3.72;;
24407;SDS011;12542;50.924;4.516;2022-08-25T00:46:05;9.32;;;4.50;;
24407;SDS011;12542;50.924;4.516;2022-08-25T00:48:32;6.82;;;4.13;;
24407;SDS011;12542;50.924;4.516;2022-08-25T00:50:59;7.10;;;3.90;;
24407;SDS011;12542;50.924;4.516;2022-08-25T00:53:27;6.20;;;4.18;;
24407;SDS011;12542;50.924;4.516;2022-08-25T00:55:54;6.22;;;3.80;;
24407;SDS011;12542;50.924;4.516;2022-08-25T00:58:23;7.47;;;4.47;;
24407;SDS011;12542;50.924;4.516;2022-08-25T01:00:52;5.22;;;4.43;;
24407;SDS011;12542;50.924;4.516;2022-08-25T01:03:20;7.28;;;4.70;;
24407;SDS011;12542;50.924;4.516;2022-08-25T01:05:50;7.07;;;4.65;;
24407;SDS011;12542;50.924;4.516;2022-08-25T01:08:18;8.00;;;4.35;;
24407;SDS011;12542;50.924;4.516;2022-08-25T01:10:51;6.68;;;4.45;;
24407;SDS011;12542;50.924;4.516;2022-08-25T01:13:25;6.13;;;4.60;;
24407;SDS011;12542;50.924;4.516;2022-08-25T01:15:58;6.43;;;4.80;;
24407;SDS011;12542;50.924;4.516;2022-08-25T01:18:24;9.43;;;4.88;;
24407;SDS011;12542;50.924;4.516;2022-08-25T01:20:52;5.88;;;3.90;;
24407;SDS011;12542;50.924;4.516;2022-08-25T01:23:20;7.30;;;4.47;;
24407;SDS011;12542;50.924;4.516;2022-08-25T01:28:45;8.20;;;4.78;;
24407;SDS011;12542;50.924;4.516;2022-08-25T01:31:33;5.47;;;4.38;;
24407;SDS011;12542;50.924;4.516;2022-08-25T01:34:03;10.77;;;4.72;;
24407;SDS011;12542;50.924;4.516;2022-08-25T01:36:30;9.65;;;4.70;;
24407;SDS011;12542;50.924;4.516;2022-08-25T01:38:57;7.18;;;4.43;;
24407;SDS011;12542;50.924;4.516;2022-08-25T01:46:24;5.97;;;4.63;;
24407;SDS011;12542;50.924;4.516;2022-08-25T01:48:50;8.18;;;4.72;;
24407;SDS011;12542;50.924;4.516;2022-08-25T01:51:18;8.25;;;4.90;;
24407;SDS011;12542;50.924;4.516;2022-08-25T01:53:47;8.07;;;4.95;;
24407;SDS011;12542;50.924;4.516;2022-08-25T01:56:14;9.55;;;5.03;;
24407;SDS011;12542;50.924;4.516;2022-08-25T01:58:43;8.90;;;4.72;;
24407;SDS011;12542;50.924;4.516;2022-08-25T02:01:19;7.55;;;4.75;;
24407;SDS011;12542;50.924;4.516;2022-08-25T02:03:53;8.00;;;5.03;;
24407;SDS011;12542;50.924;4.516;2022-08-25T02:06:27;6.15;;;5.00;;
24407;SDS011;12542;50.924;4.516;2022-08-25T02:09:00;8.73;;;5.22;;
24407;SDS011;12542;50.924;4.516;2022-08-25T02:11:29;9.18;;;5.35;;
24407;SDS011;12542;50.924;4.516;2022-08-25T02:13:56;5.47;;;4.68;;
24407;SDS011;12542;50.924;4.516;2022-08-25T02:16:24;7.60;;;4.60;;
24407;SDS011;12542;50.924;4.516;2022-08-25T02:18:53;6.88;;;5.20;;
24407;SDS011;12542;50.924;4.516;2022-08-25T02:21:19;7.72;;;5.30;;
24407;SDS011;12542;50.924;4.516;2022-08-25T02:23:46;9.50;;;6.72;;
24407;SDS011;12542;50.924;4.516;2022-08-25T02:26:14;8.25;;;6.55;;
24407;SDS011;12542;50.924;4.516;2022-08-25T02:28:47;9.32;;;6.32;;
24407;SDS011;12542;50.924;4.516;2022-08-25T02:31:15;10.88;;;7.90;;
24407;SDS011;12542;50.924;4.516;2022-08-25T02:33:42;11.13;;;7.82;;
24407;SDS011;12542;50.924;4.516;2022-08-25T02:36:08;9.40;;;7.32;;
24407;SDS011;12542;50.924;4.516;2022-08-25T02:38:34;9.38;;;7.13;;
24407;SDS011;12542;50.924;4.516;2022-08-25T02:41:00;8.02;;;6.72;;
24407;SDS011;12542;50.924;4.516;2022-08-25T02:43:42;9.50;;;7.43;;
24407;SDS011;12542;50.924;4.516;2022-08-25T02:46:08;10.23;;;7.63;;
24407;SDS011;12542;50.924;4.516;2022-08-25T02:48:38;8.45;;;6.82;;
24407;SDS011;12542;50.924;4.516;2022-08-25T02:51:05;10.45;;;7.22;;
24407;SDS011;12542;50.924;4.516;2022-08-25T02:53:33;11.80;;;6.78;;
24407;SDS011;12542;50.924;4.516;2022-08-25T02:55:59;7.85;;;6.72;;
24407;SDS011;12542;50.924;4.516;2022-08-25T02:58:26;8.70;;;6.50;;
24407;SDS011;12542;50.924;4.516;2022-08-25T03:00:53;9.63;;;7.10;;
24407;SDS011;12542;50.924;4.516;2022-08-25T03:03:19;9.27;;;7.18;;
24407;SDS011;12542;50.924;4.516;2022-08-25T03:05:46;11.27;;;8.02;;
24407;SDS011;12542;50.924;4.516;2022-08-25T03:08:12;13.73;;;7.47;;
24407;SDS011;12542;50.924;4.516;2022-08-25T03:10:41;12.27;;;7.75;;
24407;SDS011;12542;50.924;4.516;2022-08-25T03:13:07;9.52;;;6.95;;
24407;SDS011;12542;50.924;4.516;2022-08-25T03:15:33;9.95;;;7.88;;
24407;SDS011;12542;50.924;4.516;2022-08-25T03:18:01;10.55;;;7.38;;
24407;SDS011;12542;50.924;4.516;2022-08-25T03:20:28;10.60;;;7.32;;
24407;SDS011;12542;50.924;4.516;2022-08-25T03:22:59;8.52;;;7.40;;
24407;SDS011;12542;50.924;4.516;2022-08-25T03:25:26;10.40;;;7.43;;
24407;SDS011;12542;50.924;4.516;2022-08-25T03:28:30;13.90;;;7.10;;
24407;SDS011;12542;50.924;4.516;2022-08-25T03:30:57;12.63;;;8.05;;
24407;SDS011;12542;50.924;4.516;2022-08-25T03:33:24;10.90;;;7.47;;
24407;SDS011;12542;50.924;4.516;2022-08-25T03:35:54;14.65;;;7.50;;
24407;SDS011;12542;50.924;4.516;2022-08-25T03:38:21;13.52;;;7.18;;
24407;SDS011;12542;50.924;4.516;2022-08-25T03:40:47;10.73;;;7.55;;
24407;SDS011;12542;50.924;4.516;2022-08-25T03:43:14;8.52;;;7.00;;
24407;SDS011;12542;50.924;4.516;2022-08-25T03:45:41;11.45;;;7.65;;
24407;SDS011;12542;50.924;4.516;2022-08-25T03:48:12;10.45;;;6.80;;
24407;SDS011;12542;50.924;4.516;2022-08-25T03:50:45;9.90;;;7.38;;
24407;SDS011;12542;50.924;4.516;2022-08-25T03:53:13;11.05;;;7.55;;
24407;SDS011;12542;50.924;4.516;2022-08-25T03:55:39;10.68;;;7.60;;
24407;SDS011;12542;50.924;4.516;2022-08-25T03:58:08;10.48;;;6.97;;
24407;SDS011;12542;50.924;4.516;2022-08-25T04:00:36;11.32;;;6.90;;
24407;SDS011;12542;50.924;4.516;2022-08-25T04:03:05;10.38;;;7.05;;
24407;SDS011;12542;50.924;4.516;2022-08-25T04:05:31;10.15;;;6.57;;
24407;SDS011;12542;50.924;4.516;2022-08-25T04:07:59;11.27;;;6.40;;
24407;SDS011;12542;50.924;4.516;2022-08-25T04:10:25;8.75;;;6.53;;
24407;SDS011;12542;50.924;4.516;2022-08-25T04:12:51;12.20;;;7.15;;
24407;SDS011;12542;50.924;4.516;2022-08-25T04:15:17;8.57;;;6.50;;
24407;SDS011;12542;50.924;4.516;2022-08-25T04:17:43;8.27;;;5.90;;
24407;SDS011;12542;50.924;4.516;2022-08-25T04:20:10;8.00;;;6.05;;
24407;SDS011;12542;50.924;4.516;2022-08-25T04:22:36;11.10;;;6.20;;
24407;SDS011;12542;50.924;4.516;2022-08-25T04:25:05;9.18;;;6.03;;
24407;SDS011;12542;50.924;4.516;2022-08-25T04:27:32;8.57;;;5.70;;
24407;SDS011;12542;50.924;4.516;2022-08-25T04:29:58;9.25;;;5.22;;
24407;SDS011;12542;50.924;4.516;2022-08-25T04:32:24;9.38;;;5.57;;
24407;SDS011;12542;50.924;4.516;2022-08-25T04:34:50;7.72;;;5.50;;
24407;SDS011;12542;50.924;4.516;2022-08-25T04:37:16;10.77;;;6.25;;
24407;SDS011;12542;50.924;4.516;2022-08-25T04:39:42;11.77;;;6.20;;
24407;SDS011;12542;50.924;4.516;2022-08-25T04:42:08;8.50;;;5.63;;
24407;SDS011;12542;50.924;4.516;2022-08-25T04:44:34;7.63;;;5.43;;
24407;SDS011;12542;50.924;4.516;2022-08-25T04:47:00;10.60;;;6.90;;
24407;SDS011;12542;50.924;4.516;2022-08-25T04:49:26;9.98;;;6.40;;
24407;SDS011;12542;50.924;4.516;2022-08-25T04:51:52;11.30;;;5.72;;
24407;SDS011;12542;50.924;4.516;2022-08-25T04:54:18;8.82;;;6.10;;
24407;SDS011;12542;50.924;4.516;2022-08-25T04:56:46;7.32;;;5.45;;
24407;SDS011;12542;50.924;4.516;2022-08-25T04:59:13;8.07;;;6.10;;
24407;SDS011;12542;50.924;4.516;2022-08-25T05:01:40;12.23;;;6.07;;
24407;SDS011;12542;50.924;4.516;2022-08-25T05:04:08;9.90;;;5.70;;
24407;SDS011;12542;50.924;4.516;2022-08-25T05:06:38;10.52;;;5.05;;
24407;SDS011;12542;50.924;4.516;2022-08-25T05:09:04;9.57;;;5.30;;
24407;SDS011;12542;50.924;4.516;2022-08-25T05:11:30;10.68;;;5.22;;
24407;SDS011;12542;50.924;4.516;2022-08-25T05:13:57;10.85;;;5.30;;
24407;SDS011;12542;50.924;4.516;2022-08-25T05:16:24;7.63;;;4.85;;
24407;SDS011;12542;50.924;4.516;2022-08-25T05:18:50;10.68;;;4.55;;
24407;SDS011;12542;50.924;4.516;2022-08-25T05:21:18;9.80;;;5.40;;
24407;SDS011;12542;50.924;4.516;2022-08-25T05:23:49;10.48;;;5.18;;
24407;SDS011;12542;50.924;4.516;2022-08-25T05:26:20;10.20;;;3.95;;
24407;SDS011;12542;50.924;4.516;2022-08-25T05:28:50;8.60;;;4.43;;
24407;SDS011;12542;50.924;4.516;2022-08-25T05:31:17;8.35;;;4.80;;
24407;SDS011;12542;50.924;4.516;2022-08-25T05:33:44;12.20;;;4.15;;
24407;SDS011;12542;50.924;4.516;2022-08-25T05:36:11;6.53;;;3.90;;
24407;SDS011;12542;50.924;4.516;2022-08-25T05:38:37;10.57;;;3.80;;
24407;SDS011;12542;50.924;4.516;2022-08-25T05:41:06;6.90;;;3.60;;
24407;SDS011;12542;50.924;4.516;2022-08-25T05:43:35;6.80;;;3.17;;
24407;SDS011;12542;50.924;4.516;2022-08-25T05:46:02;6.57;;;3.60;;
24407;SDS011;12542;50.924;4.516;2022-08-25T05:48:30;7.03;;;3.45;;
24407;SDS011;12542;50.924;4.516;2022-08-25T05:50:57;7.40;;;3.28;;
24407;SDS011;12542;50.924;4.516;2022-08-25T05:53:24;6.03;;;3.42;;
24407;SDS011;12542;50.924;4.516;2022-08-25T05:55:52;7.25;;;2.92;;
24407;SDS011;12542;50.924;4.516;2022-08-25T05:58:20;9.98;;;3.90;;
24407;SDS011;12542;50.924;4.516;2022-08-25T06:00:49;10.27;;;3.25;;
24407;SDS011;12542;50.924;4.516;2022-08-25T06:03:16;8.80;;;2.80;;
24407;SDS011;12542;50.924;4.516;2022-08-25T06:05:42;5.75;;;2.75;;
24407;SDS011;12542;50.924;4.516;2022-08-25T06:08:08;5.38;;;2.72;;
24407;SDS011;12542;50.924;4.516;2022-08-25T06:10:34;7.28;;;2.95;;
24407;SDS011;12542;50.924;4.516;2022-08-25T06:13:00;4.10;;;2.50;;
24407;SDS011;12542;50.924;4.516;2022-08-25T06:15:28;6.93;;;3.10;;
24407;SDS011;12542;50.924;4.516;2022-08-25T06:17:54;8.07;;;3.00;;
24407;SDS011;12542;50.924;4.516;2022-08-25T06:20:24;7.95;;;3.05;;
24407;SDS011;12542;50.924;4.516;2022-08-25T06:22:54;8.63;;;2.90;;
24407;SDS011;12542;50.924;4.516;2022-08-25T06:25:22;8.00;;;2.63;;
24407;SDS011;12542;50.924;4.516;2022-08-25T06:27:49;7.45;;;3.13;;
24407;SDS011;12542;50.924;4.516;2022-08-25T06:30:17;9.45;;;3.10;;
24407;SDS011;12542;50.924;4.516;2022-08-25T06:32:45;7.15;;;2.95;;
24407;SDS011;12542;50.924;4.516;2022-08-25T06:35:13;6.47;;;2.67;;
24407;SDS011;12542;50.924;4.516;2022-08-25T06:37:40;9.77;;;3.10;;
24407;SDS011;12542;50.924;4.516;2022-08-25T06:40:07;7.70;;;2.92;;
24407;SDS011;12542;50.924;4.516;2022-08-25T06:42:35;7.95;;;2.80;;
24407;SDS011;12542;50.924;4.516;2022-08-25T06:45:01;8.45;;;2.63;;
24407;SDS011;12542;50.924;4.516;2022-08-25T06:47:27;6.72;;;2.70;;
24407;SDS011;12542;50.924;4.516;2022-08-25T06:49:53;10.88;;;2.90;;
24407;SDS011;12542;50.924;4.516;2022-08-25T06:52:19;15.02;;;3.10;;
24407;SDS011;12542;50.924;4.516;2022-08-25T06:54:46;12.63;;;2.85;;
24407;SDS011;12542;50.924;4.516;2022-08-25T06:57:12;10.68;;;3.15;;
24407;SDS011;12542;50.924;4.516;2022-08-25T06:59:37;10.80;;;3.20;;
24407;SDS011;12542;50.924;4.516;2022-08-25T07:02:05;7.78;;;2.88;;
24407;SDS011;12542;50.924;4.516;2022-08-25T07:04:33;8.93;;;2.47;;
24407;SDS011;12542;50.924;4.516;2022-08-25T07:07:00;8.43;;;2.65;;
24407;SDS011;12542;50.924;4.516;2022-08-25T07:09:26;10.43;;;2.58;;
24407;SDS011;12542;50.924;4.516;2022-08-25T07:11:52;5.75;;;2.30;;
24407;SDS011;12542;50.924;4.516;2022-08-25T07:14:19;4.80;;;2.70;;
24407;SDS011;12542;50.924;4.516;2022-08-25T07:16:46;4.97;;;1.85;;
24407;SDS011;12542;50.924;4.516;2022-08-25T07:19:12;10.52;;;2.30;;
24407;SDS011;12542;50.924;4.516;2022-08-25T07:21:38;9.07;;;2.40;;
24407;SDS011;12542;50.924;4.516;2022-08-25T07:24:10;7.30;;;2.40;;
24407;SDS011;12542;50.924;4.516;2022-08-25T07:26:38;9.57;;;2.33;;
24407;SDS011;12542;50.924;4.516;2022-08-25T07:29:11;8.55;;;2.10;;
24407;SDS011;12542;50.924;4.516;2022-08-25T07:31:44;6.75;;;2.70;;
24407;SDS011;12542;50.924;4.516;2022-08-25T07:34:10;6.05;;;2.30;;
24407;SDS011;12542;50.924;4.516;2022-08-25T07:36:55;6.50;;;2.30;;
24407;SDS011;12542;50.924;4.516;2022-08-25T07:39:22;6.03;;;2.22;;
24407;SDS011;12542;50.924;4.516;2022-08-25T07:41:51;7.18;;;1.98;;
24407;SDS011;12542;50.924;4.516;2022-08-25T07:44:18;5.82;;;2.25;;
24407;SDS011;12542;50.924;4.516;2022-08-25T07:46:46;5.47;;;2.00;;
24407;SDS011;12542;50.924;4.516;2022-08-25T07:49:12;4.97;;;2.13;;
24407;SDS011;12542;50.924;4.516;2022-08-25T07:51:38;8.05;;;2.30;;
24407;SDS011;12542;50.924;4.516;2022-08-25T07:54:04;9.55;;;2.22;;
24407;SDS011;12542;50.924;4.516;2022-08-25T07:56:30;4.10;;;2.00;;
24407;SDS011;12542;50.924;4.516;2022-08-25T07:58:55;7.43;;;2.35;;
24407;SDS011;12542;50.924;4.516;2022-08-25T08:01:22;5.05;;;1.60;;
24407;SDS011;12542;50.924;4.516;2022-08-25T08:03:49;4.47;;;2.03;;
24407;SDS011;12542;50.924;4.516;2022-08-25T08:06:16;8.38;;;2.20;;
24407;SDS011;12542;50.924;4.516;2022-08-25T08:08:44;8.23;;;2.08;;
24407;SDS011;12542;50.924;4.516;2022-08-25T08:11:20;3.95;;;2.08;;
24407;SDS011;12542;50.924;4.516;2022-08-25T08:13:51;5.10;;;1.95;;
24407;SDS011;12542;50.924;4.516;2022-08-25T08:16:19;4.90;;;2.10;;
24407;SDS011;12542;50.924;4.516;2022-08-25T08:18:47;5.85;;;1.73;;
24407;SDS011;12542;50.924;4.516;2022-08-25T08:21:16;7.97;;;1.60;;
24407;SDS011;12542;50.924;4.516;2022-08-25T08:23:42;3.58;;;1.80;;
24407;SDS011;12542;50.924;4.516;2022-08-25T08:26:08;4.90;;;1.83;;
24407;SDS011;12542;50.924;4.516;2022-08-25T08:28:35;5.53;;;1.60;;
24407;SDS011;12542;50.924;4.516;2022-08-25T08:31:01;7.43;;;1.80;;
24407;SDS011;12542;50.924;4.516;2022-08-25T08:33:27;5.45;;;1.73;;
24407;SDS011;12542;50.924;4.516;2022-08-25T08:38:23;7.80;;;1.80;;
24407;SDS011;12542;50.924;4.516;2022-08-25T08:44:05;3.05;;;1.50;;
24407;SDS011;12542;50.924;4.516;2022-08-25T08:49:20;9.15;;;2.00;;
24407;SDS011;12542;50.924;4.516;2022-08-25T08:52:07;7.78;;;1.70;;
24407;SDS011;12542;50.924;4.516;2022-08-25T08:54:36;3.58;;;1.60;;
24407;SDS011;12542;50.924;4.516;2022-08-25T08:57:15;5.03;;;1.60;;
24407;SDS011;12542;50.924;4.516;2022-08-25T08:59:47;4.85;;;1.60;;
24407;SDS011;12542;50.924;4.516;2022-08-25T09:02:22;5.00;;;1.70;;
24407;SDS011;12542;50.924;4.516;2022-08-25T09:05:03;4.35;;;1.55;;
24407;SDS011;12542;50.924;4.516;2022-08-25T09:07:35;7.97;;;1.80;;
24407;SDS011;12542;50.924;4.516;2022-08-25T09:10:05;6.45;;;1.77;;
24407;SDS011;12542;50.924;4.516;2022-08-25T09:12:33;5.55;;;1.73;;
24407;SDS011;12542;50.924;4.516;2022-08-25T09:18:19;8.15;;;1.70;;
24407;SDS011;12542;50.924;4.516;2022-08-25T09:21:33;5.03;;;1.27;;
24407;SDS011;12542;50.924;4.516;2022-08-25T09:24:23;6.85;;;1.35;;
24407;SDS011;12542;50.924;4.516;2022-08-25T09:30:28;4.28;;;1.45;;
24407;SDS011;12542;50.924;4.516;2022-08-25T09:32:40;3.03;;;1.27;;
24407;SDS011;12542;50.924;4.516;2022-08-25T09:35:28;3.25;;;1.33;;
24407;SDS011;12542;50.924;4.516;2022-08-25T09:38:09;5.88;;;1.67;;
24407;SDS011;12542;50.924;4.516;2022-08-25T09:40:37;1.92;;;1.08;;
24407;SDS011;12542;50.924;4.516;2022-08-25T09:53:49;4.03;;;1.10;;
24407;SDS011;12542;50.924;4.516;2022-08-25T09:56:24;5.07;;;1.17;;
24407;SDS011;12542;50.924;4.516;2022-08-25T09:58:54;4.75;;;1.40;;
24407;SDS011;12542;50.924;4.516;2022-08-25T10:01:21;3.78;;;1.20;;
24407;SDS011;12542;50.924;4.516;2022-08-25T10:03:57;6.88;;;1.50;;
24407;SDS011;12542;50.924;4.516;2022-08-25T10:06:27;6.18;;;1.10;;
24407;SDS011;12542;50.924;4.516;2022-08-25T10:09:21;5.50;;;1.25;;
24407;SDS011;12542;50.924;4.516;2022-08-25T10:11:53;3.75;;;1.35;;
24407;SDS011;12542;50.924;4.516;2022-08-25T10:14:34;4.38;;;1.60;;
24407;SDS011;12542;50.924;4.516;2022-08-25T10:19:51;4.65;;;1.23;;
24407;SDS011;12542;50.924;4.516;2022-08-25T10:22:25;2.58;;;1.30;;
24407;SDS011;12542;50.924;4.516;2022-08-25T10:24:57;2.67;;;1.27;;
24407;SDS011;12542;50.924;4.516;2022-08-25T10:27:38;2.42;;;1.00;;
24407;SDS011;12542;50.924;4.516;2022-08-25T10:38:46;5.97;;;1.27;;
24407;SDS011;12542;50.924;4.516;2022-08-25T10:43:53;2.58;;;1.08;;
24407;SDS011;12542;50.924;4.516;2022-08-25T10:47:26;4.35;;;1.45;;
24407;SDS011;12542;50.924;4.516;2022-08-25T10:50:11;5.72;;;1.40;;
24407;SDS011;12542;50.924;4.516;2022-08-25T10:53:09;4.32;;;1.33;;
24407;SDS011;12542;50.924;4.516;2022-08-25T10:55:43;3.35;;;1.30;;
24407;SDS011;12542;50.924;4.516;2022-08-25T11:05:02;3.42;;;1.40;;
24407;SDS011;12542;50.924;4.516;2022-08-25T11:07:35;5.63;;;0.90;;
24407;SDS011;12542;50.924;4.516;2022-08-25T11:10:07;3.03;;;1.00;;
24407;SDS011;12542;50.924;4.516;2022-08-25T11:12:38;5.03;;;1.07;;
24407;SDS011;12542;50.924;4.516;2022-08-25T11:15:11;2.17;;;1.20;;
24407;SDS011;12542;50.924;4.516;2022-08-25T11:20:18;3.22;;;1.23;;
24407;SDS011;12542;50.924;4.516;2022-08-25T11:23:01;3.78;;;1.40;;
24407;SDS011;12542;50.924;4.516;2022-08-25T11:25:35;3.45;;;1.40;;
24407;SDS011;12542;50.924;4.516;2022-08-25T11:28:10;4.50;;;1.45;;
24407;SDS011;12542;50.924;4.516;2022-08-25T11:30:40;3.85;;;1.33;;
24407;SDS011;12542;50.924;4.516;2022-08-25T11:33:11;3.22;;;1.25;;
24407;SDS011;12542;50.924;4.516;2022-08-25T11:35:42;7.55;;;1.23;;
24407;SDS011;12542;50.924;4.516;2022-08-25T11:38:13;4.13;;;1.38;;
24407;SDS011;12542;50.924;4.516;2022-08-25T11:46:18;7.13;;;1.27;;
24407;SDS011;12542;50.924;4.516;2022-08-25T11:51:44;4.85;;;1.30;;
24407;SDS011;12542;50.924;4.516;2022-08-25T11:54:15;4.05;;;1.27;;
24407;SDS011;12542;50.924;4.516;2022-08-25T12:02:31;4.63;;;1.58;;
24407;SDS011;12542;50.924;4.516;2022-08-25T12:04:58;5.75;;;1.58;;
24407;SDS011;12542;50.924;4.516;2022-08-25T12:07:25;1.70;;;1.10;;
24407;SDS011;12542;50.924;4.516;2022-08-25T12:15:19;3.55;;;1.10;;
24407;SDS011;12542;50.924;4.516;2022-08-25T12:18:13;6.97;;;1.60;;
24407;SDS011;12542;50.924;4.516;2022-08-25T12:23:40;2.78;;;1.13;;
24407;SDS011;12542;50.924;4.516;2022-08-25T12:31:46;2.95;;;1.33;;
24407;SDS011;12542;50.924;4.516;2022-08-25T12:42:34;3.05;;;1.52;;
24407;SDS011;12542;50.924;4.516;2022-08-25T12:45:13;3.63;;;1.35;;
24407;SDS011;12542;50.924;4.516;2022-08-25T12:47:57;5.30;;;1.50;;
24407;SDS011;12542;50.924;4.516;2022-08-25T12:51:14;4.72;;;1.15;;
24407;SDS011;12542;50.924;4.516;2022-08-25T12:56:30;2.70;;;1.02;;
24407;SDS011;12542;50.924;4.516;2022-08-25T13:10:35;5.63;;;1.25;;
24407;SDS011;12542;50.924;4.516;2022-08-25T13:13:23;2.67;;;1.17;;
24407;SDS011;12542;50.924;4.516;2022-08-25T13:16:06;5.05;;;1.30;;
24407;SDS011;12542;50.924;4.516;2022-08-25T13:18:39;3.28;;;1.35;;
24407;SDS011;12542;50.924;4.516;2022-08-25T13:21:09;3.28;;;1.48;;
24407;SDS011;12542;50.924;4.516;2022-08-25T13:23:45;2.55;;;1.52;;
24407;SDS011;12542;50.924;4.516;2022-08-25T13:26:14;3.03;;;1.30;;
24407;SDS011;12542;50.924;4.516;2022-08-25T13:28:56;2.85;;;1.15;;
24407;SDS011;12542;50.924;4.516;2022-08-25T13:31:27;4.15;;;1.23;;
24407;SDS011;12542;50.924;4.516;2022-08-25T13:34:04;1.98;;;0.90;;
24407;SDS011;12542;50.924;4.516;2022-08-25T13:36:33;2.47;;;0.93;;
24407;SDS011;12542;50.924;4.516;2022-08-25T13:39:25;3.78;;;1.40;;
24407;SDS011;12542;50.924;4.516;2022-08-25T13:41:53;3.65;;;1.48;;
24407;SDS011;12542;50.924;4.516;2022-08-25T13:44:21;2.72;;;1.25;;
24407;SDS011;12542;50.924;4.516;2022-08-25T13:49:31;2.72;;;1.50;;
24407;SDS011;12542;50.924;4.516;2022-08-25T13:51:57;4.78;;;1.70;;
24407;SDS011;12542;50.924;4.516;2022-08-25T13:54:24;3.47;;;1.30;;
24407;SDS011;12542;50.924;4.516;2022-08-25T13:57:05;4.30;;;1.48;;
24407;SDS011;12542;50.924;4.516;2022-08-25T13:59:41;4.07;;;1.13;;
24407;SDS011;12542;50.924;4.516;2022-08-25T14:02:11;4.93;;;1.73;;
24407;SDS011;12542;50.924;4.516;2022-08-25T14:07:05;2.92;;;1.30;;
24407;SDS011;12542;50.924;4.516;2022-08-25T14:09:48;1.88;;;1.23;;
24407;SDS011;12542;50.924;4.516;2022-08-25T14:17:47;7.78;;;3.05;;
24407;SDS011;12542;50.924;4.516;2022-08-25T14:20:26;7.07;;;2.88;;
24407;SDS011;12542;50.924;4.516;2022-08-25T14:22:57;6.40;;;2.38;;
24407;SDS011;12542;50.924;4.516;2022-08-25T14:25:37;5.60;;;2.42;;
24407;SDS011;12542;50.924;4.516;2022-08-25T14:28:05;10.60;;;2.38;;
24407;SDS011;12542;50.924;4.516;2022-08-25T14:30:34;8.98;;;2.85;;
24407;SDS011;12542;50.924;4.516;2022-08-25T14:33:03;5.22;;;2.30;;
24407;SDS011;12542;50.924;4.516;2022-08-25T14:35:30;7.00;;;3.00;;
24407;SDS011;12542;50.924;4.516;2022-08-25T14:37:56;8.63;;;2.45;;
24407;SDS011;12542;50.924;4.516;2022-08-25T14:40:22;9.10;;;2.40;;
24407;SDS011;12542;50.924;4.516;2022-08-25T14:42:48;11.45;;;3.47;;
24407;SDS011;12542;50.924;4.516;2022-08-25T14:45:15;11.60;;;3.05;;
24407;SDS011;12542;50.924;4.516;2022-08-25T14:47:41;8.43;;;2.83;;
24407;SDS011;12542;50.924;4.516;2022-08-25T14:50:10;9.95;;;2.70;;
24407;SDS011;12542;50.924;4.516;2022-08-25T14:52:37;11.98;;;2.53;;
24407;SDS011;12542;50.924;4.516;2022-08-25T14:55:05;4.60;;;2.05;;
24407;SDS011;12542;50.924;4.516;2022-08-25T14:57:31;6.35;;;2.45;;
24407;SDS011;12542;50.924;4.516;2022-08-25T14:59:57;12.07;;;2.47;;
24407;SDS011;12542;50.924;4.516;2022-08-25T15:02:23;6.97;;;2.63;;
24407;SDS011;12542;50.924;4.516;2022-08-25T15:04:54;5.65;;;2.15;;
24407;SDS011;12542;50.924;4.516;2022-08-25T15:07:23;9.52;;;2.92;;
24407;SDS011;12542;50.924;4.516;2022-08-25T15:10:08;12.02;;;2.88;;
24407;SDS011;12542;50.924;4.516;2022-08-25T15:12:37;7.35;;;2.72;;
24407;SDS011;12542;50.924;4.516;2022-08-25T15:15:03;7.72;;;2.65;;
24407;SDS011;12542;50.924;4.516;2022-08-25T15:17:30;6.50;;;2.90;;
24407;SDS011;12542;50.924;4.516;2022-08-25T15:19:56;5.07;;;2.25;;
24407;SDS011;12542;50.924;4.516;2022-08-25T15:22:22;11.88;;;2.40;;
24407;SDS011;12542;50.924;4.516;2022-08-25T15:24:47;8.25;;;2.38;;
24407;SDS011;12542;50.924;4.516;2022-08-25T15:27:14;10.38;;;2.42;;
24407;SDS011;12542;50.924;4.516;2022-08-25T15:29:43;10.45;;;2.33;;
24407;SDS011;12542;50.924;4.516;2022-08-25T15:32:09;4.53;;;2.42;;
24407;SDS011;12542;50.924;4.516;2022-08-25T15:34:35;6.85;;;2.28;;
24407;SDS011;12542;50.924;4.516;2022-08-25T15:37:13;8.13;;;2.20;;
24407;SDS011;12542;50.924;4.516;2022-08-25T15:39:41;8.88;;;2.65;;
24407;SDS011;12542;50.924;4.516;2022-08-25T15:42:08;5.80;;;2.85;;
24407;SDS011;12542;50.924;4.516;2022-08-25T15:44:36;8.27;;;3.03;;
24407;SDS011;12542;50.924;4.516;2022-08-25T15:47:03;10.98;;;4.35;;
24407;SDS011;12542;50.924;4.516;2022-08-25T15:49:29;7.57;;;4.10;;
24407;SDS011;12542;50.924;4.516;2022-08-25T15:51:55;8.32;;;4.20;;
24407;SDS011;12542;50.924;4.516;2022-08-25T15:54:21;9.40;;;4.18;;
24407;SDS011;12542;50.924;4.516;2022-08-25T15:56:47;12.18;;;4.28;;
24407;SDS011;12542;50.924;4.516;2022-08-25T15:59:13;24.30;;;4.85;;
24407;SDS011;12542;50.924;4.516;2022-08-25T16:01:39;10.35;;;5.63;;
24407;SDS011;12542;50.924;4.516;2022-08-25T16:04:05;10.82;;;5.55;;
24407;SDS011;12542;50.924;4.516;2022-08-25T16:06:32;9.32;;;5.88;;
24407;SDS011;12542;50.924;4.516;2022-08-25T16:08:58;12.05;;;5.05;;
24407;SDS011;12542;50.924;4.516;2022-08-25T16:11:26;11.82;;;6.18;;
24407;SDS011;12542;50.924;4.516;2022-08-25T16:13:54;9.27;;;5.90;;
24407;SDS011;12542;50.924;4.516;2022-08-25T16:16:21;10.63;;;5.55;;
24407;SDS011;12542;50.924;4.516;2022-08-25T16:18:49;10.60;;;7.72;;
24407;SDS011;12542;50.924;4.516;2022-08-25T16:21:23;10.30;;;8.00;;
24407;SDS011;12542;50.924;4.516;2022-08-25T16:23:54;11.65;;;6.70;;
24407;SDS011;12542;50.924;4.516;2022-08-25T16:26:22;8.95;;;7.40;;
24407;SDS011;12542;50.924;4.516;2022-08-25T16:28:48;10.75;;;7.43;;
24407;SDS011;12542;50.924;4.516;2022-08-25T16:31:16;10.60;;;6.50;;
24407;SDS011;12542;50.924;4.516;2022-08-25T16:33:42;14.23;;;6.10;;
24407;SDS011;12542;50.924;4.516;2022-08-25T16:36:09;10.18;;;6.57;;
24407;SDS011;12542;50.924;4.516;2022-08-25T16:38:42;11.27;;;6.15;;
24407;SDS011;12542;50.924;4.516;2022-08-25T16:41:10;11.63;;;6.45;;
24407;SDS011;12542;50.924;4.516;2022-08-25T16:43:40;15.20;;;7.35;;
24407;SDS011;12542;50.924;4.516;2022-08-25T16:46:08;14.20;;;7.53;;
24407;SDS011;12542;50.924;4.516;2022-08-25T16:48:36;7.90;;;6.65;;
24407;SDS011;12542;50.924;4.516;2022-08-25T16:51:10;9.25;;;6.40;;
24407;SDS011;12542;50.924;4.516;2022-08-25T16:53:38;12.82;;;7.22;;
24407;SDS011;12542;50.924;4.516;2022-08-25T16:56:23;11.32;;;7.40;;
24407;SDS011;12542;50.924;4.516;2022-08-25T16:58:56;13.43;;;8.32;;
24407;SDS011;12542;50.924;4.516;2022-08-25T17:01:23;11.98;;;7.63;;
24407;SDS011;12542;50.924;4.516;2022-08-25T17:03:51;9.75;;;6.60;;